LAX weather

Los Angeles International Airport
Los Angeles, California, United States

Public forecast

Using degrees Fahrenheit for public forecast. Weather courtesy of forecast.io.

METAR (pilot weather report)

Retrieved 2018/08/20 02:53 UTC (43 minutes ago):

KLAX 200253Z 27008KT 8SM FEW009 22/19 A2987 RMK AO2 SLP111 T02220194 55000

TAF (pilot weather forecast)

Forecast is more than 12 hours old.

Retrieved 2018/08/19 00:40 UTC (1 day ago):

TAF KLAX 192338Z 2000/2106 25012KT P6SM FEW012 FEW100 FM200400 26006KT P6SM SCT012 FM200900 VRB03KT P6SM OVC010 FM201700 24006KT P6SM SCT015 FM202000 26012KT P6SM SKC FM210400 26005KT P6SM SCT012